DLH061 EHRD-EDDK
Flight info
| Callsign | DLH061 |
|---|---|
| Flight time | N/A |
| Altitude | 21000 |
| Route | WOODY N872 AMMOF/N0418F230 N872 NIK M624 GILOM/N0394F190 L607 LNO M170 NVO/N0281F090 DCT KBO |
| Aircraft | CRJ9/M-SDFGIRWY/S |
Departure
| Time | 2026-05-06 18:37 |
|---|---|
| Airport | Rotterdam The Hague Airport (EHRD) |
Arrival
| Time | N/A |
|---|---|
| Airport | Cologne Bonn Airport (EDDK) |
| Time | Latitude | Longitude | Altitude | Speed | Heading |
|---|---|---|---|---|---|
| 2026-05-06 18:10 | 51.94938 | 4.43589 | -1 ft | 0 kts | 326° |
| 2026-05-06 18:28 | 51.94939 | 4.43588 | -1 ft | 1 kts | 326° |
| 2026-05-06 18:28 | 51.94962 | 4.43565 | -1 ft | 5 kts | 341° |
| 2026-05-06 18:28 | 51.94980 | 4.43573 | -1 ft | 9 kts | 38° |
| 2026-05-06 18:29 | 51.95040 | 4.43700 | -1 ft | 11 kts | 27° |
| 2026-05-06 18:29 | 51.95101 | 4.43660 | -1 ft | 16 kts | 327° |
| 2026-05-06 18:29 | 51.95199 | 4.43559 | -1 ft | 17 kts | 327° |
| 2026-05-06 18:29 | 51.95264 | 4.43484 | -1 ft | 5 kts | 290° |
| 2026-05-06 18:30 | 51.95261 | 4.43448 | -1 ft | 3 kts | 244° |
| 2026-05-06 18:30 | 51.95227 | 4.43359 | -1 ft | 11 kts | 237° |
| 2026-05-06 18:30 | 51.95198 | 4.43286 | -1 ft | 6 kts | 237° |
| 2026-05-06 18:30 | 51.95173 | 4.43225 | -1 ft | 7 kts | 239° |
| 2026-05-06 18:31 | 51.95149 | 4.43155 | -1 ft | 7 kts | 244° |
| 2026-05-06 18:31 | 51.95147 | 4.43149 | -1 ft | 0 kts | 244° |
| 2026-05-06 18:34 | 51.95129 | 4.43088 | -1 ft | 8 kts | 245° |
| 2026-05-06 18:34 | 51.95108 | 4.43000 | -1 ft | 7 kts | 268° |
| 2026-05-06 18:35 | 51.95118 | 4.42952 | -1 ft | 12 kts | 307° |
| 2026-05-06 18:35 | 51.95183 | 4.42873 | 0 ft | 11 kts | 327° |
| 2026-05-06 18:35 | 51.95211 | 4.42855 | 0 ft | 2 kts | 9° |
| 2026-05-06 18:35 | 51.95224 | 4.42870 | 0 ft | 0 kts | 50° |
| 2026-05-06 18:36 | 51.95225 | 4.42872 | 0 ft | 0 kts | 53° |
| 2026-05-06 18:36 | 51.95239 | 4.42904 | 0 ft | 15 kts | 55° |
| 2026-05-06 18:36 | 51.95435 | 4.43394 | -2 ft | 91 kts | 57° |
| 2026-05-06 18:37 | 51.95900 | 4.44554 | 12 ft | 149 kts | 56° |
| 2026-05-06 18:37 | 51.96444 | 4.46022 | 664 ft | 159 kts | 58° |
| 2026-05-06 18:37 | 51.97088 | 4.47836 | 1023 ft | 206 kts | 58° |
| 2026-05-06 18:37 | 51.97853 | 4.49950 | 1850 ft | 229 kts | 59° |
| 2026-05-06 18:38 | 51.98698 | 4.52339 | 2588 ft | 251 kts | 59° |
| 2026-05-06 18:38 | 51.99599 | 4.54869 | 3757 ft | 249 kts | 60° |
| 2026-05-06 18:38 | 52.00406 | 4.57221 | 5193 ft | 256 kts | 61° |
| 2026-05-06 18:38 | 52.01255 | 4.59985 | 5434 ft | 277 kts | 68° |
| 2026-05-06 18:39 | 52.00858 | 4.62681 | 6188 ft | 268 kts | 140° |
| 2026-05-06 18:39 | 51.99072 | 4.63906 | 6154 ft | 287 kts | 160° |
| 2026-05-06 18:39 | 51.97201 | 4.64938 | 6316 ft | 296 kts | 160° |
| 2026-05-06 18:40 | 51.93577 | 4.66908 | 6817 ft | 242 kts | 164° |